sensor_id;sensor_type;location;lat;lon;timestamp;P1;durP1;ratioP1;P2;durP2;ratioP2
44536;SDS011;30245;51.966;6.292;2022-07-19T00:02:14;2.10;;;0.60;;
44536;SDS011;30245;51.966;6.292;2022-07-19T00:04:39;1.92;;;0.50;;
44536;SDS011;30245;51.966;6.292;2022-07-19T00:07:05;2.42;;;0.40;;
44536;SDS011;30245;51.966;6.292;2022-07-19T00:09:31;2.20;;;0.60;;
44536;SDS011;30245;51.966;6.292;2022-07-19T00:11:57;1.63;;;0.60;;
44536;SDS011;30245;51.966;6.292;2022-07-19T00:14:22;0.68;;;0.40;;
44536;SDS011;30245;51.966;6.292;2022-07-19T00:16:48;1.00;;;0.30;;
44536;SDS011;30245;51.966;6.292;2022-07-19T00:19:14;1.25;;;0.40;;
44536;SDS011;30245;51.966;6.292;2022-07-19T00:21:40;0.95;;;0.30;;
44536;SDS011;30245;51.966;6.292;2022-07-19T00:24:06;0.63;;;0.30;;
44536;SDS011;30245;51.966;6.292;2022-07-19T00:26:31;0.90;;;0.30;;
44536;SDS011;30245;51.966;6.292;2022-07-19T00:28:57;0.80;;;0.40;;
44536;SDS011;30245;51.966;6.292;2022-07-19T00:31:26;1.40;;;0.43;;
44536;SDS011;30245;51.966;6.292;2022-07-19T00:33:52;0.85;;;0.32;;
44536;SDS011;30245;51.966;6.292;2022-07-19T00:36:18;1.88;;;0.40;;
44536;SDS011;30245;51.966;6.292;2022-07-19T00:38:44;0.70;;;0.30;;
44536;SDS011;30245;51.966;6.292;2022-07-19T00:41:10;2.30;;;0.30;;
44536;SDS011;30245;51.966;6.292;2022-07-19T00:43:35;0.95;;;0.40;;
44536;SDS011;30245;51.966;6.292;2022-07-19T00:46:11;2.80;;;0.40;;
44536;SDS011;30245;51.966;6.292;2022-07-19T00:48:40;0.75;;;0.30;;
44536;SDS011;30245;51.966;6.292;2022-07-19T00:51:07;6.15;;;0.50;;
44536;SDS011;30245;51.966;6.292;2022-07-19T00:53:38;3.60;;;0.40;;
44536;SDS011;30245;51.966;6.292;2022-07-19T00:56:05;0.52;;;0.30;;
44536;SDS011;30245;51.966;6.292;2022-07-19T00:58:32;0.88;;;0.32;;
44536;SDS011;30245;51.966;6.292;2022-07-19T01:01:00;1.10;;;0.55;;
44536;SDS011;30245;51.966;6.292;2022-07-19T01:03:26;8.40;;;0.60;;
44536;SDS011;30245;51.966;6.292;2022-07-19T01:05:52;0.95;;;0.40;;
44536;SDS011;30245;51.966;6.292;2022-07-19T01:08:18;1.20;;;0.30;;
44536;SDS011;30245;51.966;6.292;2022-07-19T01:10:44;1.35;;;0.40;;
44536;SDS011;30245;51.966;6.292;2022-07-19T01:13:12;1.95;;;0.43;;
44536;SDS011;30245;51.966;6.292;2022-07-19T01:15:38;2.08;;;0.52;;
44536;SDS011;30245;51.966;6.292;2022-07-19T01:18:06;1.38;;;0.47;;
44536;SDS011;30245;51.966;6.292;2022-07-19T01:20:32;1.67;;;0.82;;
44536;SDS011;30245;51.966;6.292;2022-07-19T01:22:58;1.25;;;0.40;;
44536;SDS011;30245;51.966;6.292;2022-07-19T01:25:25;1.38;;;0.57;;
44536;SDS011;30245;51.966;6.292;2022-07-19T01:27:55;0.65;;;0.30;;
44536;SDS011;30245;51.966;6.292;2022-07-19T01:30:22;1.10;;;0.40;;
44536;SDS011;30245;51.966;6.292;2022-07-19T01:32:50;2.55;;;0.30;;
44536;SDS011;30245;51.966;6.292;2022-07-19T01:35:17;1.50;;;0.40;;
44536;SDS011;30245;51.966;6.292;2022-07-19T01:37:43;0.90;;;0.40;;
44536;SDS011;30245;51.966;6.292;2022-07-19T01:40:10;1.05;;;0.60;;
44536;SDS011;30245;51.966;6.292;2022-07-19T01:45:03;0.80;;;0.30;;
44536;SDS011;30245;51.966;6.292;2022-07-19T01:47:30;1.42;;;0.38;;
44536;SDS011;30245;51.966;6.292;2022-07-19T01:49:55;1.33;;;0.60;;
44536;SDS011;30245;51.966;6.292;2022-07-19T01:52:21;2.60;;;0.40;;
44536;SDS011;30245;51.966;6.292;2022-07-19T01:54:47;1.60;;;0.40;;
44536;SDS011;30245;51.966;6.292;2022-07-19T01:57:13;0.90;;;0.35;;
44536;SDS011;30245;51.966;6.292;2022-07-19T01:59:39;2.67;;;0.40;;
44536;SDS011;30245;51.966;6.292;2022-07-19T02:02:05;0.90;;;0.30;;
44536;SDS011;30245;51.966;6.292;2022-07-19T02:04:31;2.05;;;0.40;;
44536;SDS011;30245;51.966;6.292;2022-07-19T02:06:57;1.10;;;0.65;;
44536;SDS011;30245;51.966;6.292;2022-07-19T02:09:23;1.45;;;0.50;;
44536;SDS011;30245;51.966;6.292;2022-07-19T02:11:49;1.10;;;0.52;;
44536;SDS011;30245;51.966;6.292;2022-07-19T02:14:15;0.70;;;0.35;;
44536;SDS011;30245;51.966;6.292;2022-07-19T02:16:41;3.47;;;0.50;;
44536;SDS011;30245;51.966;6.292;2022-07-19T02:19:08;1.05;;;0.40;;
44536;SDS011;30245;51.966;6.292;2022-07-19T02:21:35;2.72;;;0.68;;
44536;SDS011;30245;51.966;6.292;2022-07-19T02:24:02;3.05;;;0.40;;
44536;SDS011;30245;51.966;6.292;2022-07-19T02:26:29;0.80;;;0.40;;
44536;SDS011;30245;51.966;6.292;2022-07-19T02:28:55;1.45;;;0.50;;
44536;SDS011;30245;51.966;6.292;2022-07-19T02:31:20;2.65;;;0.60;;
44536;SDS011;30245;51.966;6.292;2022-07-19T02:33:47;2.45;;;0.70;;
44536;SDS011;30245;51.966;6.292;2022-07-19T02:36:13;2.75;;;0.80;;
44536;SDS011;30245;51.966;6.292;2022-07-19T02:38:39;3.38;;;1.25;;
44536;SDS011;30245;51.966;6.292;2022-07-19T02:41:05;1.30;;;0.60;;
44536;SDS011;30245;51.966;6.292;2022-07-19T02:43:30;1.98;;;0.65;;
44536;SDS011;30245;51.966;6.292;2022-07-19T02:45:56;1.52;;;0.65;;
44536;SDS011;30245;51.966;6.292;2022-07-19T02:48:22;1.13;;;0.50;;
44536;SDS011;30245;51.966;6.292;2022-07-19T02:50:48;1.85;;;0.40;;
44536;SDS011;30245;51.966;6.292;2022-07-19T02:53:13;1.23;;;0.40;;
44536;SDS011;30245;51.966;6.292;2022-07-19T02:55:39;0.95;;;0.57;;
44536;SDS011;30245;51.966;6.292;2022-07-19T02:58:05;2.08;;;0.40;;
44536;SDS011;30245;51.966;6.292;2022-07-19T03:00:31;0.85;;;0.32;;
44536;SDS011;30245;51.966;6.292;2022-07-19T03:02:57;1.05;;;0.50;;
44536;SDS011;30245;51.966;6.292;2022-07-19T03:05:42;2.33;;;0.50;;
44536;SDS011;30245;51.966;6.292;2022-07-19T03:08:09;1.75;;;1.05;;
44536;SDS011;30245;51.966;6.292;2022-07-19T03:10:35;1.67;;;0.50;;
44536;SDS011;30245;51.966;6.292;2022-07-19T03:13:00;2.65;;;0.70;;
44536;SDS011;30245;51.966;6.292;2022-07-19T03:15:26;1.80;;;0.95;;
44536;SDS011;30245;51.966;6.292;2022-07-19T03:17:51;2.63;;;0.80;;
44536;SDS011;30245;51.966;6.292;2022-07-19T03:20:17;1.95;;;0.57;;
44536;SDS011;30245;51.966;6.292;2022-07-19T03:22:43;3.85;;;0.47;;
44536;SDS011;30245;51.966;6.292;2022-07-19T03:25:09;1.10;;;0.50;;
44536;SDS011;30245;51.966;6.292;2022-07-19T03:27:35;1.38;;;0.50;;
44536;SDS011;30245;51.966;6.292;2022-07-19T03:30:00;0.60;;;0.40;;
44536;SDS011;30245;51.966;6.292;2022-07-19T03:32:26;2.47;;;0.40;;
44536;SDS011;30245;51.966;6.292;2022-07-19T03:34:52;1.45;;;0.73;;
44536;SDS011;30245;51.966;6.292;2022-07-19T03:37:18;2.55;;;0.50;;
44536;SDS011;30245;51.966;6.292;2022-07-19T03:39:43;2.92;;;0.90;;
44536;SDS011;30245;51.966;6.292;2022-07-19T03:42:09;1.10;;;0.40;;
44536;SDS011;30245;51.966;6.292;2022-07-19T03:44:35;1.85;;;0.95;;
44536;SDS011;30245;51.966;6.292;2022-07-19T03:47:01;0.68;;;0.43;;
44536;SDS011;30245;51.966;6.292;2022-07-19T03:49:26;3.47;;;0.90;;
44536;SDS011;30245;51.966;6.292;2022-07-19T03:51:52;1.55;;;0.80;;
44536;SDS011;30245;51.966;6.292;2022-07-19T03:54:18;2.45;;;0.88;;
44536;SDS011;30245;51.966;6.292;2022-07-19T03:56:43;1.70;;;0.50;;
44536;SDS011;30245;51.966;6.292;2022-07-19T03:59:09;2.47;;;0.65;;
44536;SDS011;30245;51.966;6.292;2022-07-19T04:01:35;1.17;;;0.77;;
44536;SDS011;30245;51.966;6.292;2022-07-19T04:04:02;2.72;;;1.05;;
44536;SDS011;30245;51.966;6.292;2022-07-19T04:06:29;2.58;;;0.73;;
44536;SDS011;30245;51.966;6.292;2022-07-19T04:08:54;1.00;;;0.65;;
44536;SDS011;30245;51.966;6.292;2022-07-19T04:11:20;2.28;;;0.73;;
44536;SDS011;30245;51.966;6.292;2022-07-19T04:13:46;2.92;;;1.00;;
44536;SDS011;30245;51.966;6.292;2022-07-19T04:16:11;2.25;;;1.40;;
44536;SDS011;30245;51.966;6.292;2022-07-19T04:18:37;1.80;;;0.80;;
44536;SDS011;30245;51.966;6.292;2022-07-19T04:21:04;2.00;;;0.75;;
44536;SDS011;30245;51.966;6.292;2022-07-19T04:23:30;1.20;;;0.75;;
44536;SDS011;30245;51.966;6.292;2022-07-19T04:25:55;2.10;;;0.88;;
44536;SDS011;30245;51.966;6.292;2022-07-19T04:28:21;1.77;;;0.70;;
44536;SDS011;30245;51.966;6.292;2022-07-19T04:30:47;2.17;;;0.80;;
44536;SDS011;30245;51.966;6.292;2022-07-19T04:33:13;1.52;;;0.85;;
44536;SDS011;30245;51.966;6.292;2022-07-19T04:35:40;3.45;;;0.93;;
44536;SDS011;30245;51.966;6.292;2022-07-19T04:38:06;1.40;;;0.90;;
44536;SDS011;30245;51.966;6.292;2022-07-19T04:40:32;3.83;;;1.42;;
44536;SDS011;30245;51.966;6.292;2022-07-19T04:42:57;3.83;;;0.77;;
44536;SDS011;30245;51.966;6.292;2022-07-19T04:45:23;4.10;;;1.30;;
44536;SDS011;30245;51.966;6.292;2022-07-19T04:47:49;3.67;;;1.48;;
44536;SDS011;30245;51.966;6.292;2022-07-19T04:50:14;2.00;;;0.80;;
44536;SDS011;30245;51.966;6.292;2022-07-19T04:52:40;2.20;;;1.00;;
44536;SDS011;30245;51.966;6.292;2022-07-19T04:55:06;7.35;;;1.38;;
44536;SDS011;30245;51.966;6.292;2022-07-19T04:57:32;1.40;;;0.95;;
44536;SDS011;30245;51.966;6.292;2022-07-19T04:59:58;1.15;;;0.85;;
44536;SDS011;30245;51.966;6.292;2022-07-19T05:02:23;4.35;;;1.15;;
44536;SDS011;30245;51.966;6.292;2022-07-19T05:04:49;2.50;;;0.98;;
44536;SDS011;30245;51.966;6.292;2022-07-19T05:07:15;2.67;;;1.08;;
44536;SDS011;30245;51.966;6.292;2022-07-19T05:09:41;1.60;;;1.27;;
44536;SDS011;30245;51.966;6.292;2022-07-19T05:12:06;4.50;;;1.60;;
44536;SDS011;30245;51.966;6.292;2022-07-19T05:14:34;3.00;;;1.20;;
44536;SDS011;30245;51.966;6.292;2022-07-19T05:16:59;2.33;;;1.00;;
44536;SDS011;30245;51.966;6.292;2022-07-19T05:19:25;2.65;;;1.27;;
44536;SDS011;30245;51.966;6.292;2022-07-19T05:21:51;2.42;;;1.23;;
44536;SDS011;30245;51.966;6.292;2022-07-19T05:24:16;2.40;;;1.13;;
44536;SDS011;30245;51.966;6.292;2022-07-19T05:26:42;3.20;;;2.20;;
44536;SDS011;30245;51.966;6.292;2022-07-19T05:29:08;3.17;;;1.33;;
44536;SDS011;30245;51.966;6.292;2022-07-19T05:31:33;3.50;;;1.52;;
44536;SDS011;30245;51.966;6.292;2022-07-19T05:33:59;3.10;;;1.30;;
44536;SDS011;30245;51.966;6.292;2022-07-19T05:36:25;1.95;;;1.25;;
44536;SDS011;30245;51.966;6.292;2022-07-19T05:38:50;4.20;;;1.48;;
44536;SDS011;30245;51.966;6.292;2022-07-19T05:41:18;2.08;;;1.63;;
44536;SDS011;30245;51.966;6.292;2022-07-19T05:43:46;2.13;;;1.58;;
44536;SDS011;30245;51.966;6.292;2022-07-19T05:46:13;2.42;;;1.17;;
44536;SDS011;30245;51.966;6.292;2022-07-19T05:48:39;4.05;;;1.20;;
44536;SDS011;30245;51.966;6.292;2022-07-19T05:51:04;1.60;;;0.80;;
44536;SDS011;30245;51.966;6.292;2022-07-19T05:53:30;3.45;;;1.52;;
44536;SDS011;30245;51.966;6.292;2022-07-19T05:55:56;2.35;;;1.50;;
44536;SDS011;30245;51.966;6.292;2022-07-19T05:58:22;1.85;;;1.25;;
44536;SDS011;30245;51.966;6.292;2022-07-19T06:00:49;1.83;;;1.30;;
44536;SDS011;30245;51.966;6.292;2022-07-19T06:03:49;3.80;;;1.30;;
44536;SDS011;30245;51.966;6.292;2022-07-19T06:06:16;1.95;;;1.48;;
44536;SDS011;30245;51.966;6.292;2022-07-19T06:08:42;3.35;;;1.23;;
44536;SDS011;30245;51.966;6.292;2022-07-19T06:11:09;2.15;;;1.40;;
44536;SDS011;30245;51.966;6.292;2022-07-19T06:13:35;3.80;;;1.15;;
44536;SDS011;30245;51.966;6.292;2022-07-19T06:16:01;2.55;;;1.23;;
44536;SDS011;30245;51.966;6.292;2022-07-19T06:18:28;1.98;;;1.15;;
44536;SDS011;30245;51.966;6.292;2022-07-19T06:20:59;1.58;;;0.93;;
44536;SDS011;30245;51.966;6.292;2022-07-19T06:23:29;1.80;;;1.00;;
44536;SDS011;30245;51.966;6.292;2022-07-19T06:25:55;2.03;;;0.93;;
44536;SDS011;30245;51.966;6.292;2022-07-19T06:28:21;3.15;;;0.95;;
44536;SDS011;30245;51.966;6.292;2022-07-19T06:30:47;3.60;;;1.02;;
44536;SDS011;30245;51.966;6.292;2022-07-19T06:33:12;2.85;;;1.20;;
44536;SDS011;30245;51.966;6.292;2022-07-19T06:35:39;2.90;;;1.20;;
44536;SDS011;30245;51.966;6.292;2022-07-19T06:38:05;4.97;;;1.25;;
44536;SDS011;30245;51.966;6.292;2022-07-19T06:40:31;2.10;;;0.90;;
44536;SDS011;30245;51.966;6.292;2022-07-19T06:42:57;2.78;;;0.60;;
44536;SDS011;30245;51.966;6.292;2022-07-19T06:45:22;7.20;;;1.77;;
44536;SDS011;30245;51.966;6.292;2022-07-19T06:47:48;4.03;;;0.73;;
44536;SDS011;30245;51.966;6.292;2022-07-19T06:50:15;5.18;;;0.82;;
44536;SDS011;30245;51.966;6.292;2022-07-19T06:52:42;1.90;;;0.80;;
44536;SDS011;30245;51.966;6.292;2022-07-19T06:55:08;3.63;;;1.27;;
44536;SDS011;30245;51.966;6.292;2022-07-19T06:57:34;1.48;;;0.90;;
44536;SDS011;30245;51.966;6.292;2022-07-19T06:59:59;5.60;;;1.02;;
44536;SDS011;30245;51.966;6.292;2022-07-19T07:02:25;4.93;;;0.85;;
44536;SDS011;30245;51.966;6.292;2022-07-19T07:04:51;4.18;;;0.70;;
44536;SDS011;30245;51.966;6.292;2022-07-19T07:07:17;2.55;;;0.65;;
44536;SDS011;30245;51.966;6.292;2022-07-19T07:09:43;1.52;;;0.60;;
44536;SDS011;30245;51.966;6.292;2022-07-19T07:12:09;2.15;;;0.65;;
44536;SDS011;30245;51.966;6.292;2022-07-19T07:14:35;4.93;;;0.88;;
44536;SDS011;30245;51.966;6.292;2022-07-19T07:17:01;2.58;;;0.98;;
44536;SDS011;30245;51.966;6.292;2022-07-19T07:19:26;3.58;;;1.00;;
44536;SDS011;30245;51.966;6.292;2022-07-19T07:21:52;5.93;;;0.80;;
44536;SDS011;30245;51.966;6.292;2022-07-19T07:24:17;3.42;;;0.85;;
44536;SDS011;30245;51.966;6.292;2022-07-19T07:26:43;3.40;;;1.15;;
44536;SDS011;30245;51.966;6.292;2022-07-19T07:29:09;4.05;;;1.55;;
44536;SDS011;30245;51.966;6.292;2022-07-19T07:31:35;5.47;;;0.73;;
44536;SDS011;30245;51.966;6.292;2022-07-19T07:34:01;3.05;;;0.93;;
44536;SDS011;30245;51.966;6.292;2022-07-19T07:36:28;2.30;;;0.60;;
44536;SDS011;30245;51.966;6.292;2022-07-19T07:38:54;1.48;;;0.55;;
44536;SDS011;30245;51.966;6.292;2022-07-19T07:41:19;1.50;;;0.90;;
44536;SDS011;30245;51.966;6.292;2022-07-19T07:43:45;2.15;;;0.80;;
44536;SDS011;30245;51.966;6.292;2022-07-19T07:46:11;1.42;;;0.63;;
44536;SDS011;30245;51.966;6.292;2022-07-19T07:48:36;3.47;;;0.63;;
44536;SDS011;30245;51.966;6.292;2022-07-19T07:51:02;2.63;;;0.70;;
44536;SDS011;30245;51.966;6.292;2022-07-19T07:53:28;3.55;;;1.08;;
44536;SDS011;30245;51.966;6.292;2022-07-19T07:55:53;1.73;;;0.63;;
44536;SDS011;30245;51.966;6.292;2022-07-19T07:58:19;3.63;;;0.60;;
44536;SDS011;30245;51.966;6.292;2022-07-19T08:00:45;2.97;;;0.70;;
44536;SDS011;30245;51.966;6.292;2022-07-19T08:03:10;2.63;;;0.60;;
44536;SDS011;30245;51.966;6.292;2022-07-19T08:05:36;3.92;;;0.60;;
44536;SDS011;30245;51.966;6.292;2022-07-19T08:08:02;2.33;;;0.40;;
44536;SDS011;30245;51.966;6.292;2022-07-19T08:10:28;4.30;;;1.02;;
44536;SDS011;30245;51.966;6.292;2022-07-19T08:12:57;2.97;;;0.60;;
44536;SDS011;30245;51.966;6.292;2022-07-19T08:15:23;2.15;;;0.40;;
44536;SDS011;30245;51.966;6.292;2022-07-19T08:17:49;1.73;;;0.70;;
44536;SDS011;30245;51.966;6.292;2022-07-19T08:20:14;2.58;;;0.70;;
44536;SDS011;30245;51.966;6.292;2022-07-19T08:22:40;1.73;;;0.50;;
44536;SDS011;30245;51.966;6.292;2022-07-19T08:25:06;1.92;;;0.60;;
44536;SDS011;30245;51.966;6.292;2022-07-19T08:27:32;3.72;;;0.43;;
44536;SDS011;30245;51.966;6.292;2022-07-19T08:29:59;2.10;;;0.60;;
44536;SDS011;30245;51.966;6.292;2022-07-19T08:32:25;2.00;;;0.88;;
44536;SDS011;30245;51.966;6.292;2022-07-19T08:34:51;4.82;;;0.57;;
44536;SDS011;30245;51.966;6.292;2022-07-19T08:37:16;5.05;;;0.73;;
44536;SDS011;30245;51.966;6.292;2022-07-19T08:39:42;3.38;;;0.50;;
44536;SDS011;30245;51.966;6.292;2022-07-19T08:42:08;7.40;;;0.50;;
44536;SDS011;30245;51.966;6.292;2022-07-19T08:44:35;2.33;;;0.40;;
44536;SDS011;30245;51.966;6.292;2022-07-19T08:47:05;2.05;;;0.32;;
44536;SDS011;30245;51.966;6.292;2022-07-19T08:49:31;2.75;;;0.40;;
44536;SDS011;30245;51.966;6.292;2022-07-19T08:51:57;1.45;;;0.73;;
44536;SDS011;30245;51.966;6.292;2022-07-19T08:54:23;3.15;;;0.45;;
44536;SDS011;30245;51.966;6.292;2022-07-19T08:56:49;1.63;;;0.60;;
44536;SDS011;30245;51.966;6.292;2022-07-19T08:59:47;1.35;;;0.50;;
44536;SDS011;30245;51.966;6.292;2022-07-19T09:02:13;1.75;;;0.40;;
44536;SDS011;30245;51.966;6.292;2022-07-19T09:04:39;3.58;;;0.60;;
44536;SDS011;30245;51.966;6.292;2022-07-19T09:07:05;2.10;;;0.57;;
44536;SDS011;30245;51.966;6.292;2022-07-19T09:09:31;2.70;;;0.52;;
44536;SDS011;30245;51.966;6.292;2022-07-19T09:12:00;2.08;;;0.40;;
44536;SDS011;30245;51.966;6.292;2022-07-19T09:14:28;1.17;;;0.35;;
44536;SDS011;30245;51.966;6.292;2022-07-19T09:19:29;0.95;;;0.50;;
44536;SDS011;30245;51.966;6.292;2022-07-19T09:22:00;1.50;;;0.40;;
44536;SDS011;30245;51.966;6.292;2022-07-19T09:24:31;3.38;;;0.50;;
44536;SDS011;30245;51.966;6.292;2022-07-19T09:27:10;2.90;;;0.50;;
44536;SDS011;30245;51.966;6.292;2022-07-19T09:29:40;1.05;;;0.50;;
44536;SDS011;30245;51.966;6.292;2022-07-19T09:35:03;2.97;;;0.47;;
44536;SDS011;30245;51.966;6.292;2022-07-19T09:37:28;1.30;;;0.30;;
44536;SDS011;30245;51.966;6.292;2022-07-19T09:39:57;1.02;;;0.40;;
44536;SDS011;30245;51.966;6.292;2022-07-19T09:42:37;0.93;;;0.35;;
44536;SDS011;30245;51.966;6.292;2022-07-19T09:45:08;0.80;;;0.40;;
44536;SDS011;30245;51.966;6.292;2022-07-19T09:47:40;1.75;;;0.30;;
44536;SDS011;30245;51.966;6.292;2022-07-19T09:50:08;2.58;;;0.40;;
44536;SDS011;30245;51.966;6.292;2022-07-19T09:52:35;0.95;;;0.32;;
44536;SDS011;30245;51.966;6.292;2022-07-19T09:55:03;1.63;;;0.50;;
44536;SDS011;30245;51.966;6.292;2022-07-19T09:57:31;1.48;;;0.30;;
44536;SDS011;30245;51.966;6.292;2022-07-19T10:00:00;2.55;;;0.40;;
44536;SDS011;30245;51.966;6.292;2022-07-19T10:02:29;2.15;;;0.40;;
44536;SDS011;30245;51.966;6.292;2022-07-19T10:04:58;1.80;;;0.50;;
44536;SDS011;30245;51.966;6.292;2022-07-19T10:07:24;2.88;;;0.32;;
44536;SDS011;30245;51.966;6.292;2022-07-19T10:09:51;2.60;;;0.25;;
44536;SDS011;30245;51.966;6.292;2022-07-19T10:12:17;1.15;;;0.30;;
44536;SDS011;30245;51.966;6.292;2022-07-19T10:14:43;2.00;;;0.30;;
44536;SDS011;30245;51.966;6.292;2022-07-19T10:20:05;3.00;;;0.40;;
44536;SDS011;30245;51.966;6.292;2022-07-19T10:22:32;2.00;;;0.55;;
44536;SDS011;30245;51.966;6.292;2022-07-19T10:32:36;0.90;;;0.30;;
44536;SDS011;30245;51.966;6.292;2022-07-19T10:35:19;2.28;;;0.55;;
44536;SDS011;30245;51.966;6.292;2022-07-19T10:37:52;2.45;;;0.40;;
44536;SDS011;30245;51.966;6.292;2022-07-19T10:43:12;3.35;;;0.40;;
44536;SDS011;30245;51.966;6.292;2022-07-19T10:48:36;4.65;;;0.50;;
44536;SDS011;30245;51.966;6.292;2022-07-19T10:51:30;2.13;;;0.40;;
44536;SDS011;30245;51.966;6.292;2022-07-19T10:54:01;1.50;;;0.40;;
44536;SDS011;30245;51.966;6.292;2022-07-19T10:56:33;2.00;;;0.50;;
44536;SDS011;30245;51.966;6.292;2022-07-19T10:59:07;1.15;;;0.50;;
44536;SDS011;30245;51.966;6.292;2022-07-19T11:01:35;0.93;;;0.32;;
44536;SDS011;30245;51.966;6.292;2022-07-19T11:06:46;4.10;;;0.50;;
44536;SDS011;30245;51.966;6.292;2022-07-19T11:09:12;2.42;;;0.30;;
44536;SDS011;30245;51.966;6.292;2022-07-19T11:11:38;1.98;;;0.50;;
44536;SDS011;30245;51.966;6.292;2022-07-19T11:14:03;2.35;;;0.30;;
44536;SDS011;30245;51.966;6.292;2022-07-19T11:16:29;4.72;;;0.40;;
44536;SDS011;30245;51.966;6.292;2022-07-19T11:19:08;2.70;;;0.40;;
44536;SDS011;30245;51.966;6.292;2022-07-19T11:21:35;1.42;;;0.43;;
44536;SDS011;30245;51.966;6.292;2022-07-19T11:24:03;4.50;;;0.70;;
44536;SDS011;30245;51.966;6.292;2022-07-19T11:26:38;3.35;;;0.52;;
44536;SDS011;30245;51.966;6.292;2022-07-19T11:29:05;4.20;;;0.43;;
44536;SDS011;30245;51.966;6.292;2022-07-19T11:31:30;1.38;;;0.40;;
44536;SDS011;30245;51.966;6.292;2022-07-19T11:33:57;1.17;;;0.33;;
44536;SDS011;30245;51.966;6.292;2022-07-19T11:36:23;1.80;;;0.47;;
44536;SDS011;30245;51.966;6.292;2022-07-19T11:38:52;1.10;;;0.40;;
44536;SDS011;30245;51.966;6.292;2022-07-19T11:41:23;2.78;;;0.40;;
44536;SDS011;30245;51.966;6.292;2022-07-19T11:46:23;2.42;;;0.32;;
44536;SDS011;30245;51.966;6.292;2022-07-19T11:48:54;2.03;;;0.40;;
44536;SDS011;30245;51.966;6.292;2022-07-19T11:51:21;1.27;;;0.50;;
44536;SDS011;30245;51.966;6.292;2022-07-19T11:53:48;2.53;;;0.47;;
44536;SDS011;30245;51.966;6.292;2022-07-19T11:56:26;2.65;;;0.45;;
44536;SDS011;30245;51.966;6.292;2022-07-19T11:58:57;2.13;;;0.30;;
44536;SDS011;30245;51.966;6.292;2022-07-19T12:01:26;1.55;;;0.30;;
44536;SDS011;30245;51.966;6.292;2022-07-19T12:03:54;2.40;;;0.57;;
44536;SDS011;30245;51.966;6.292;2022-07-19T12:09:06;0.82;;;0.30;;
44536;SDS011;30245;51.966;6.292;2022-07-19T12:11:41;0.75;;;0.38;;
44536;SDS011;30245;51.966;6.292;2022-07-19T12:17:12;1.10;;;0.50;;
44536;SDS011;30245;51.966;6.292;2022-07-19T12:19:44;2.00;;;0.35;;
44536;SDS011;30245;51.966;6.292;2022-07-19T12:22:30;5.05;;;0.60;;
44536;SDS011;30245;51.966;6.292;2022-07-19T12:24:59;2.90;;;0.30;;
44536;SDS011;30245;51.966;6.292;2022-07-19T12:27:24;2.50;;;0.30;;
44536;SDS011;30245;51.966;6.292;2022-07-19T12:29:52;1.20;;;0.40;;
44536;SDS011;30245;51.966;6.292;2022-07-19T12:35:07;1.60;;;0.30;;
44536;SDS011;30245;51.966;6.292;2022-07-19T12:42:52;1.55;;;0.30;;
44536;SDS011;30245;51.966;6.292;2022-07-19T12:50:22;4.95;;;0.57;;
44536;SDS011;30245;51.966;6.292;2022-07-19T12:52:50;1.48;;;0.20;;
44536;SDS011;30245;51.966;6.292;2022-07-19T12:55:17;1.58;;;0.20;;
44536;SDS011;30245;51.966;6.292;2022-07-19T12:57:43;1.27;;;0.30;;
44536;SDS011;30245;51.966;6.292;2022-07-19T13:00:09;1.08;;;0.25;;
44536;SDS011;30245;51.966;6.292;2022-07-19T13:02:36;4.97;;;0.45;;
44536;SDS011;30245;51.966;6.292;2022-07-19T13:05:02;1.80;;;0.30;;
44536;SDS011;30245;51.966;6.292;2022-07-19T13:07:28;1.85;;;0.20;;
44536;SDS011;30245;51.966;6.292;2022-07-19T13:09:55;2.72;;;0.30;;
44536;SDS011;30245;51.966;6.292;2022-07-19T13:12:21;1.50;;;0.30;;
44536;SDS011;30245;51.966;6.292;2022-07-19T13:14:47;1.07;;;0.20;;
44536;SDS011;30245;51.966;6.292;2022-07-19T13:17:12;1.40;;;0.20;;
44536;SDS011;30245;51.966;6.292;2022-07-19T13:19:38;1.87;;;0.30;;
44536;SDS011;30245;51.966;6.292;2022-07-19T13:22:04;1.58;;;0.50;;
44536;SDS011;30245;51.966;6.292;2022-07-19T13:24:30;1.52;;;0.43;;
44536;SDS011;30245;51.966;6.292;2022-07-19T13:26:57;0.40;;;0.10;;
44536;SDS011;30245;51.966;6.292;2022-07-19T13:29:23;0.93;;;0.20;;
44536;SDS011;30245;51.966;6.292;2022-07-19T13:31:49;2.33;;;0.25;;
44536;SDS011;30245;51.966;6.292;2022-07-19T13:34:15;1.67;;;0.30;;
44536;SDS011;30245;51.966;6.292;2022-07-19T13:36:41;0.70;;;0.23;;
44536;SDS011;30245;51.966;6.292;2022-07-19T13:39:07;2.08;;;0.40;;
44536;SDS011;30245;51.966;6.292;2022-07-19T13:41:35;1.63;;;0.50;;
44536;SDS011;30245;51.966;6.292;2022-07-19T13:44:02;0.85;;;0.43;;
44536;SDS011;30245;51.966;6.292;2022-07-19T13:46:28;1.60;;;0.45;;
44536;SDS011;30245;51.966;6.292;2022-07-19T13:48:53;1.60;;;0.47;;
44536;SDS011;30245;51.966;6.292;2022-07-19T13:51:19;1.37;;;0.40;;
44536;SDS011;30245;51.966;6.292;2022-07-19T13:53:45;1.77;;;0.40;;
44536;SDS011;30245;51.966;6.292;2022-07-19T13:56:10;1.60;;;0.40;;
44536;SDS011;30245;51.966;6.292;2022-07-19T13:58:36;1.30;;;0.20;;
44536;SDS011;30245;51.966;6.292;2022-07-19T14:01:02;0.80;;;0.30;;
44536;SDS011;30245;51.966;6.292;2022-07-19T14:03:27;1.63;;;0.20;;
44536;SDS011;30245;51.966;6.292;2022-07-19T14:05:53;0.90;;;0.43;;
44536;SDS011;30245;51.966;6.292;2022-07-19T14:08:19;3.00;;;0.40;;
44536;SDS011;30245;51.966;6.292;2022-07-19T14:10:44;1.50;;;0.60;;
44536;SDS011;30245;51.966;6.292;2022-07-19T14:13:10;0.83;;;0.20;;
44536;SDS011;30245;51.966;6.292;2022-07-19T14:15:37;2.28;;;0.30;;
44536;SDS011;30245;51.966;6.292;2022-07-19T14:18:03;1.90;;;0.30;;
44536;SDS011;30245;51.966;6.292;2022-07-19T14:20:29;4.60;;;0.60;;
44536;SDS011;30245;51.966;6.292;2022-07-19T14:22:55;1.23;;;0.50;;
44536;SDS011;30245;51.966;6.292;2022-07-19T14:25:20;1.27;;;0.40;;
44536;SDS011;30245;51.966;6.292;2022-07-19T14:27:47;4.25;;;0.55;;
44536;SDS011;30245;51.966;6.292;2022-07-19T14:30:13;1.98;;;0.40;;
44536;SDS011;30245;51.966;6.292;2022-07-19T14:32:39;1.42;;;0.40;;
44536;SDS011;30245;51.966;6.292;2022-07-19T14:39:56;2.88;;;0.40;;
44536;SDS011;30245;51.966;6.292;2022-07-19T14:42:22;2.45;;;0.40;;
44536;SDS011;30245;51.966;6.292;2022-07-19T14:44:48;1.23;;;0.32;;
44536;SDS011;30245;51.966;6.292;2022-07-19T14:47:14;2.80;;;0.30;;
44536;SDS011;30245;51.966;6.292;2022-07-19T14:49:40;0.30;;;0.10;;
44536;SDS011;30245;51.966;6.292;2022-07-19T14:52:05;1.38;;;0.22;;
44536;SDS011;30245;51.966;6.292;2022-07-19T14:54:31;1.97;;;0.27;;
44536;SDS011;30245;51.966;6.292;2022-07-19T14:56:57;1.35;;;0.30;;
44536;SDS011;30245;51.966;6.292;2022-07-19T15:04:16;2.03;;;0.25;;
44536;SDS011;30245;51.966;6.292;2022-07-19T15:09:08;1.20;;;0.40;;
44536;SDS011;30245;51.966;6.292;2022-07-19T15:11:35;0.43;;;0.20;;
44536;SDS011;30245;51.966;6.292;2022-07-19T15:16:27;0.70;;;0.30;;
44536;SDS011;30245;51.966;6.292;2022-07-19T15:18:53;0.35;;;0.13;;
44536;SDS011;30245;51.966;6.292;2022-07-19T15:21:19;1.80;;;0.30;;
44536;SDS011;30245;51.966;6.292;2022-07-19T15:23:44;0.55;;;0.20;;
44536;SDS011;30245;51.966;6.292;2022-07-19T15:26:11;2.38;;;0.20;;
44536;SDS011;30245;51.966;6.292;2022-07-19T15:28:37;0.47;;;0.20;;
44536;SDS011;30245;51.966;6.292;2022-07-19T15:31:03;0.73;;;0.10;;
44536;SDS011;30245;51.966;6.292;2022-07-19T15:33:30;1.10;;;0.30;;
44536;SDS011;30245;51.966;6.292;2022-07-19T15:35:55;1.05;;;0.20;;
44536;SDS011;30245;51.966;6.292;2022-07-19T15:38:21;0.60;;;0.30;;
44536;SDS011;30245;51.966;6.292;2022-07-19T15:40:47;1.23;;;0.25;;
44536;SDS011;30245;51.966;6.292;2022-07-19T15:43:13;3.53;;;0.20;;
44536;SDS011;30245;51.966;6.292;2022-07-19T15:45:41;1.02;;;0.32;;
44536;SDS011;30245;51.966;6.292;2022-07-19T15:48:07;0.63;;;0.20;;
44536;SDS011;30245;51.966;6.292;2022-07-19T15:50:32;0.57;;;0.20;;